createdAt,value
2018-07-11T00:01:14.974Z,13.30
2018-07-11T00:03:46.137Z,13.20
2018-07-11T00:06:15.872Z,13.30
2018-07-11T00:08:44.246Z,13.30
2018-07-11T00:11:12.893Z,13.30
2018-07-11T00:13:43.529Z,13.30
2018-07-11T00:16:12.657Z,13.30
2018-07-11T00:18:41.052Z,13.30
2018-07-11T00:21:09.477Z,13.30
2018-07-11T00:23:38.000Z,13.30
2018-07-11T00:26:07.420Z,13.30
2018-07-11T00:28:35.789Z,13.30
2018-07-11T00:31:04.193Z,13.30
2018-07-11T00:36:01.020Z,13.30
2018-07-11T00:38:29.625Z,13.10
2018-07-11T00:40:58.852Z,12.90
2018-07-11T00:43:28.064Z,12.90
2018-07-11T00:45:56.505Z,12.90
2018-07-11T00:48:24.889Z,12.80
2018-07-11T00:50:53.273Z,12.80
2018-07-11T00:53:22.724Z,12.70
2018-07-11T00:55:51.148Z,12.70
2018-07-11T00:59:28.892Z,12.60
2018-07-11T01:02:02.288Z,12.60
2018-07-11T01:04:30.748Z,12.50
2018-07-11T01:07:00.743Z,12.60
2018-07-11T01:09:30.582Z,12.60
2018-07-11T01:11:59.025Z,12.60
2018-07-11T01:14:27.470Z,12.50
2018-07-11T01:16:55.904Z,12.50
2018-07-11T01:19:24.361Z,12.60
2018-07-11T01:22:01.588Z,12.50
2018-07-11T01:24:31.134Z,12.50
2018-07-11T01:27:00.245Z,12.50
2018-07-11T01:29:28.624Z,12.50
2018-07-11T01:31:57.039Z,12.50
2018-07-11T01:34:25.384Z,12.40
2018-07-11T01:36:53.805Z,12.30
2018-07-11T01:39:22.220Z,12.30
2018-07-11T01:41:50.774Z,12.30
2018-07-11T01:44:19.129Z,12.20
2018-07-11T01:46:48.857Z,12.10
2018-07-11T01:49:17.274Z,12.10
2018-07-11T01:51:57.654Z,12.10
2018-07-11T01:54:26.857Z,12.10
2018-07-11T01:56:55.248Z,12.20
2018-07-11T01:59:27.056Z,12.20
2018-07-11T02:01:55.789Z,12.30
2018-07-11T02:04:24.208Z,12.30
2018-07-11T02:06:52.800Z,12.40
2018-07-11T02:09:21.234Z,12.40
2018-07-11T02:11:49.677Z,12.40
2018-07-11T02:14:18.160Z,12.40
2018-07-11T02:16:46.595Z,12.50
2018-07-11T02:19:15.368Z,12.60
2018-07-11T02:21:43.808Z,12.50
2018-07-11T02:24:12.189Z,12.40
2018-07-11T02:26:40.601Z,12.50
2018-07-11T02:29:09.036Z,12.40
2018-07-11T02:31:37.423Z,12.40
2018-07-11T02:34:05.885Z,12.40
2018-07-11T02:36:34.265Z,12.40
2018-07-11T02:39:02.761Z,12.30
2018-07-11T02:41:31.149Z,12.30
2018-07-11T02:43:59.549Z,12.30
2018-07-11T02:46:33.338Z,12.30
2018-07-11T02:49:01.765Z,12.30
2018-07-11T02:51:30.192Z,12.10
2018-07-11T02:53:59.170Z,12.10
2018-07-11T02:56:27.570Z,12.10
2018-07-11T02:58:55.940Z,12.20
2018-07-11T03:01:24.289Z,12.20
2018-07-11T03:03:53.314Z,12.20
2018-07-11T03:06:21.667Z,12.20
2018-07-11T03:08:50.049Z,12.20
2018-07-11T03:11:18.409Z,12.10
2018-07-11T03:13:46.780Z,12.00
2018-07-11T03:17:18.376Z,12.00
2018-07-11T03:19:46.782Z,12.10
2018-07-11T03:22:15.502Z,12.20
2018-07-11T03:24:44.006Z,12.30
2018-07-11T03:27:12.601Z,12.30
2018-07-11T03:29:41.229Z,12.40
2018-07-11T03:32:09.634Z,12.40
2018-07-11T03:34:38.022Z,12.50
2018-07-11T03:37:06.513Z,12.70
2018-07-11T03:39:34.941Z,12.70
2018-07-11T03:42:03.369Z,12.80
2018-07-11T03:44:31.800Z,12.80
2018-07-11T03:47:00.181Z,12.90
2018-07-11T03:49:28.545Z,12.90
2018-07-11T03:51:56.900Z,12.90
2018-07-11T03:54:25.374Z,12.90
2018-07-11T03:56:53.701Z,12.90
2018-07-11T03:59:22.087Z,12.80
2018-07-11T04:01:50.413Z,12.70
2018-07-11T04:04:18.765Z,12.60
2018-07-11T04:06:47.096Z,12.60
2018-07-11T04:09:15.485Z,12.60
2018-07-11T04:11:43.857Z,12.50
2018-07-11T04:14:15.100Z,12.60
2018-07-11T04:16:43.457Z,12.60
2018-07-11T04:19:11.866Z,12.60
2018-07-11T04:21:40.133Z,12.60
2018-07-11T04:24:08.540Z,12.60
2018-07-11T04:26:36.949Z,12.60
2018-07-11T04:29:05.337Z,12.70
2018-07-11T04:31:33.705Z,12.70
2018-07-11T04:34:02.096Z,12.80
2018-07-11T04:36:30.462Z,12.80
2018-07-11T04:38:58.869Z,12.80
2018-07-11T04:41:27.244Z,12.80
2018-07-11T04:43:55.644Z,12.80
2018-07-11T04:46:24.053Z,12.90
2018-07-11T04:48:52.456Z,13.00
2018-07-11T04:51:20.861Z,13.10
2018-07-11T04:53:49.299Z,13.10
2018-07-11T04:56:17.702Z,13.20
2018-07-11T04:58:46.128Z,13.20
2018-07-11T05:01:14.416Z,13.30
2018-07-11T05:03:42.796Z,13.20
2018-07-11T05:06:11.137Z,13.30
2018-07-11T05:08:39.493Z,13.20
2018-07-11T05:11:07.889Z,13.20
2018-07-11T05:13:36.333Z,13.10
2018-07-11T05:16:04.737Z,13.10
2018-07-11T05:18:33.084Z,13.10
2018-07-11T05:21:01.432Z,13.20
2018-07-11T05:23:29.765Z,13.20
2018-07-11T05:25:58.084Z,13.30
2018-07-11T05:28:26.419Z,13.40
2018-07-11T05:30:54.764Z,13.50
2018-07-11T05:33:23.098Z,13.40
2018-07-11T05:35:51.469Z,13.50
2018-07-11T05:38:19.850Z,13.50
2018-07-11T05:40:48.337Z,13.50
2018-07-11T05:43:16.724Z,13.50
2018-07-11T05:45:45.076Z,13.50
2018-07-11T05:48:13.434Z,13.50
2018-07-11T05:50:41.749Z,13.60
2018-07-11T05:53:10.101Z,13.60
2018-07-11T05:55:38.491Z,13.80
2018-07-11T05:58:06.796Z,13.80
2018-07-11T06:00:35.132Z,14.00
2018-07-11T06:03:03.493Z,14.00
2018-07-11T06:05:32.010Z,14.10
2018-07-11T06:08:00.264Z,14.10
2018-07-11T06:10:28.610Z,14.30
2018-07-11T06:12:56.978Z,14.50
2018-07-11T06:15:25.320Z,14.90
2018-07-11T06:17:53.640Z,15.10
2018-07-11T06:20:21.993Z,15.20
2018-07-11T06:22:50.634Z,15.10
2018-07-11T06:25:18.973Z,15.10
2018-07-11T06:27:47.312Z,15.00
2018-07-11T06:30:15.698Z,15.00
2018-07-11T06:32:44.050Z,14.90
2018-07-11T06:35:12.414Z,14.80
2018-07-11T06:37:40.740Z,14.80
2018-07-11T06:40:09.153Z,14.70
2018-07-11T06:42:37.493Z,14.70
2018-07-11T06:45:05.885Z,14.60
2018-07-11T06:47:34.213Z,14.60
2018-07-11T06:50:02.585Z,14.50
2018-07-11T06:52:30.984Z,14.80
2018-07-11T06:54:59.369Z,15.00
2018-07-11T06:57:29.225Z,15.10
2018-07-11T06:59:57.573Z,15.10
2018-07-11T07:02:25.946Z,15.50
2018-07-11T07:04:54.346Z,15.70
2018-07-11T07:07:22.692Z,15.90
2018-07-11T07:09:51.057Z,16.10
2018-07-11T07:12:19.405Z,16.30
2018-07-11T07:14:47.765Z,16.60
2018-07-11T07:17:16.112Z,17.00
2018-07-11T07:19:44.491Z,17.20
2018-07-11T07:22:12.840Z,17.70
2018-07-11T07:24:41.224Z,17.90
2018-07-11T07:27:09.601Z,18.10
2018-07-11T07:29:37.936Z,18.10
2018-07-11T07:32:06.329Z,17.70
2018-07-11T07:34:34.706Z,17.40
2018-07-11T07:37:03.077Z,17.00
2018-07-11T07:39:31.486Z,16.80
2018-07-11T07:41:59.890Z,16.70
2018-07-11T07:44:28.244Z,16.60
2018-07-11T07:46:59.683Z,16.70
2018-07-11T07:49:28.925Z,16.60
2018-07-11T07:51:57.749Z,16.40
2018-07-11T07:54:26.413Z,16.30
2018-07-11T07:56:54.821Z,16.20
2018-07-11T07:59:24.270Z,16.30
2018-07-11T08:01:52.729Z,16.50
2018-07-11T08:04:21.125Z,16.70
2018-07-11T08:06:49.515Z,16.70
2018-07-11T08:09:17.966Z,16.90
2018-07-11T08:11:46.348Z,17.10
2018-07-11T08:14:14.678Z,17.40
2018-07-11T08:16:43.065Z,17.50
2018-07-11T08:19:11.389Z,17.80
2018-07-11T08:21:39.743Z,18.00
2018-07-11T08:24:19.385Z,18.20
2018-07-11T08:27:19.748Z,18.10
2018-07-11T08:30:00.154Z,18.10
2018-07-11T08:32:45.419Z,18.20
2018-07-11T08:35:26.973Z,18.30
2018-07-11T08:38:10.617Z,18.30
2018-07-11T08:40:51.892Z,18.40
2018-07-11T08:43:32.100Z,18.50
2018-07-11T08:46:17.737Z,18.20
2018-07-11T08:51:09.640Z,18.50
2018-07-11T08:54:21.573Z,18.90
2018-07-11T08:59:00.961Z,18.50
2018-07-11T09:03:46.025Z,18.40
2018-07-11T09:06:31.141Z,18.70
2018-07-11T09:11:45.592Z,18.90
2018-07-11T09:14:27.317Z,19.00
2018-07-11T09:18:10.809Z,18.90
2018-07-11T09:21:26.083Z,19.20
2018-07-11T09:24:02.726Z,19.50
2018-07-11T09:26:31.069Z,19.80
2018-07-11T09:28:59.416Z,19.70
2018-07-11T09:31:27.809Z,19.40
2018-07-11T09:33:57.169Z,19.20
2018-07-11T09:36:25.550Z,19.10
2018-07-11T09:38:54.364Z,19.10
2018-07-11T09:41:22.709Z,19.30
2018-07-11T09:43:51.077Z,19.20
2018-07-11T09:46:19.489Z,19.50
2018-07-11T09:48:47.901Z,19.60
2018-07-11T09:51:16.304Z,19.60
2018-07-11T09:53:44.831Z,19.50
2018-07-11T09:56:13.261Z,19.40
2018-07-11T09:58:42.005Z,19.40
2018-07-11T10:01:15.905Z,19.50
2018-07-11T10:03:44.322Z,19.60
2018-07-11T10:06:12.781Z,19.80
2018-07-11T10:08:41.173Z,19.90
2018-07-11T10:11:09.526Z,19.90
2018-07-11T10:13:37.968Z,20.00
2018-07-11T10:16:06.338Z,20.20
2018-07-11T10:18:34.725Z,20.00
2018-07-11T10:21:03.090Z,20.10
2018-07-11T10:23:31.453Z,20.00
2018-07-11T10:25:59.898Z,19.90
2018-07-11T10:28:28.270Z,20.20
2018-07-11T10:30:56.668Z,20.20
2018-07-11T10:33:25.059Z,20.00
2018-07-11T10:35:53.597Z,20.10
2018-07-11T10:38:21.953Z,20.20
2018-07-11T10:40:50.416Z,20.40
2018-07-11T10:43:18.802Z,20.60
2018-07-11T10:45:47.180Z,20.90
2018-07-11T10:48:15.565Z,21.00
2018-07-11T10:50:43.919Z,20.90
2018-07-11T10:53:12.369Z,20.90
2018-07-11T10:55:40.745Z,20.90
2018-07-11T10:58:09.097Z,21.10
2018-07-11T11:00:37.752Z,21.10
2018-07-11T11:03:06.151Z,21.00
2018-07-11T11:05:34.505Z,21.00
2018-07-11T11:08:02.956Z,21.10
2018-07-11T11:10:31.304Z,21.30
2018-07-11T11:12:59.669Z,21.20
2018-07-11T11:15:28.030Z,21.00
2018-07-11T11:17:56.401Z,21.00
2018-07-11T11:20:24.812Z,21.30
2018-07-11T11:22:53.229Z,21.60
2018-07-11T11:25:21.612Z,21.70
2018-07-11T11:27:50.008Z,21.80
2018-07-11T11:30:18.374Z,21.70
2018-07-11T11:32:46.753Z,21.50
2018-07-11T11:35:15.105Z,21.40
2018-07-11T11:37:43.520Z,21.50
2018-07-11T11:40:11.864Z,21.60
2018-07-11T11:42:40.643Z,21.70
2018-07-11T11:45:08.981Z,21.70
2018-07-11T11:47:37.421Z,21.70
2018-07-11T11:50:05.826Z,21.60
2018-07-11T11:52:34.276Z,21.80
2018-07-11T11:55:02.629Z,21.90
2018-07-11T11:57:31.111Z,22.00
2018-07-11T11:59:59.504Z,21.80
2018-07-11T12:02:27.892Z,21.70
2018-07-11T12:04:56.381Z,21.80
2018-07-11T12:07:24.733Z,21.90
2018-07-11T12:09:53.114Z,22.00
2018-07-11T12:12:21.500Z,21.90
2018-07-11T12:14:49.849Z,22.10
2018-07-11T12:17:18.241Z,22.10
2018-07-11T12:19:47.344Z,22.30
2018-07-11T12:22:22.802Z,22.40
2018-07-11T12:24:51.632Z,22.10
2018-07-11T12:27:20.221Z,22.00
2018-07-11T12:29:49.408Z,22.10
2018-07-11T12:32:17.745Z,22.30
2018-07-11T12:34:46.262Z,22.50
2018-07-11T12:37:15.546Z,22.40
2018-07-11T12:39:44.178Z,22.30
2018-07-11T12:42:12.590Z,22.30
2018-07-11T12:44:40.969Z,22.30
2018-07-11T12:47:14.730Z,22.30
2018-07-11T12:49:43.156Z,22.40
2018-07-11T12:52:11.565Z,22.50
2018-07-11T12:54:39.973Z,22.50
2018-07-11T12:57:08.774Z,22.50
2018-07-11T12:59:37.242Z,22.30
2018-07-11T13:02:05.647Z,22.20
2018-07-11T13:04:34.106Z,22.20
2018-07-11T13:07:03.117Z,22.20
2018-07-11T13:09:31.538Z,22.10
2018-07-11T13:12:00.491Z,22.10
2018-07-11T13:14:28.845Z,22.00
2018-07-11T13:16:57.262Z,21.90
2018-07-11T13:19:25.653Z,21.80
2018-07-11T13:21:54.097Z,21.70
2018-07-11T13:24:22.445Z,21.70
2018-07-11T13:26:50.818Z,21.60
2018-07-11T13:31:47.541Z,21.70
2018-07-11T13:34:15.964Z,21.70
2018-07-11T13:36:44.360Z,21.70
2018-07-11T13:39:17.892Z,21.60
2018-07-11T13:41:47.033Z,21.50
2018-07-11T13:44:15.405Z,21.40
2018-07-11T13:46:43.816Z,21.40
2018-07-11T13:49:12.774Z,21.40
2018-07-11T13:51:41.216Z,21.50
2018-07-11T13:54:09.965Z,21.50
2018-07-11T13:56:38.325Z,21.50
2018-07-11T13:59:06.697Z,21.50
2018-07-11T14:01:35.105Z,21.50
2018-07-11T14:04:03.792Z,21.50
2018-07-11T14:06:32.162Z,21.50
2018-07-11T14:09:01.180Z,21.60
2018-07-11T14:11:29.521Z,21.60
2018-07-11T14:13:57.975Z,21.60
2018-07-11T14:16:26.338Z,21.60
2018-07-11T14:18:54.753Z,21.60
2018-07-11T14:21:23.337Z,21.50
2018-07-11T14:23:52.041Z,21.50
2018-07-11T14:26:20.846Z,21.50
2018-07-11T14:28:50.489Z,21.50
2018-07-11T14:31:36.097Z,21.50
2018-07-11T14:34:07.269Z,21.50
2018-07-11T14:36:36.076Z,21.50
2018-07-11T14:39:05.718Z,21.50
2018-07-11T14:41:34.212Z,21.50
2018-07-11T14:44:02.633Z,21.40
2018-07-11T14:46:31.446Z,21.40
2018-07-11T14:49:00.241Z,21.40
2018-07-11T14:51:28.774Z,21.40
2018-07-11T14:53:57.764Z,21.50
2018-07-11T14:56:26.171Z,21.50
2018-07-11T14:58:56.446Z,21.50
2018-07-11T15:01:25.156Z,21.40
2018-07-11T15:03:53.845Z,21.30
2018-07-11T15:06:23.088Z,21.20
2018-07-11T15:08:51.893Z,21.20
2018-07-11T15:11:20.716Z,21.10
2018-07-11T15:13:49.272Z,20.90
2018-07-11T15:16:17.949Z,20.60
2018-07-11T15:18:46.548Z,20.30
2018-07-11T15:21:15.261Z,20.00
2018-07-11T15:23:43.674Z,19.80
2018-07-11T15:26:12.121Z,19.50
2018-07-11T15:28:40.665Z,19.30
2018-07-11T15:31:09.053Z,19.20
2018-07-11T15:33:37.457Z,19.00
2018-07-11T15:36:05.837Z,19.00
2018-07-11T15:38:34.230Z,19.10
2018-07-11T15:41:02.641Z,19.00
2018-07-11T15:43:31.100Z,18.90
2018-07-11T15:45:59.820Z,18.90
2018-07-11T15:48:28.616Z,19.10
2018-07-11T15:50:57.248Z,19.00
2018-07-11T15:53:27.167Z,19.10
2018-07-11T15:55:55.601Z,19.10
2018-07-11T15:58:26.519Z,19.10
2018-07-11T16:00:55.517Z,19.10
2018-07-11T16:03:26.049Z,19.20
2018-07-11T16:05:55.608Z,19.20
2018-07-11T16:08:23.977Z,19.20
2018-07-11T16:10:54.121Z,19.30
2018-07-11T16:13:22.572Z,19.40
2018-07-11T16:15:51.053Z,19.50
2018-07-11T16:18:19.378Z,19.60
2018-07-11T16:20:47.864Z,19.50
2018-07-11T16:23:16.264Z,19.40
2018-07-11T16:25:44.966Z,19.40
2018-07-11T16:28:13.402Z,19.30
2018-07-11T16:30:41.799Z,19.40
2018-07-11T16:33:10.174Z,19.40
2018-07-11T16:35:38.617Z,19.30
2018-07-11T16:38:07.001Z,19.30
2018-07-11T16:40:35.393Z,19.30
2018-07-11T16:43:04.019Z,19.20
2018-07-11T16:45:32.461Z,19.20
2018-07-11T16:48:01.087Z,19.20
2018-07-11T16:50:29.521Z,19.20
2018-07-11T16:52:58.210Z,19.10
2018-07-11T16:55:27.292Z,19.10
2018-07-11T16:57:56.292Z,19.10
2018-07-11T17:00:33.592Z,19.30
2018-07-11T17:03:10.059Z,19.20
2018-07-11T17:05:48.041Z,19.10
2018-07-11T17:08:18.558Z,19.00
2018-07-11T17:10:46.989Z,18.90
2018-07-11T17:13:20.832Z,19.00
2018-07-11T17:15:50.631Z,19.00
2018-07-11T17:18:52.348Z,18.90
2018-07-11T17:21:34.620Z,18.90
2018-07-11T17:24:06.865Z,18.70
2018-07-11T17:26:35.945Z,18.70
2018-07-11T17:29:04.420Z,18.50
2018-07-11T17:31:34.610Z,18.30
2018-07-11T17:34:04.005Z,18.40
2018-07-11T17:36:33.946Z,18.20
2018-07-11T17:39:04.440Z,18.00
2018-07-11T17:41:33.350Z,18.00
2018-07-11T17:44:03.204Z,18.00
2018-07-11T17:46:32.613Z,18.00
2018-07-11T17:49:12.561Z,18.10
2018-07-11T17:51:49.934Z,18.10
2018-07-11T17:54:18.382Z,18.10
2018-07-11T17:56:54.340Z,18.00
2018-07-11T17:59:29.016Z,18.00
2018-07-11T18:01:58.517Z,18.00
2018-07-11T18:04:39.026Z,18.10
2018-07-11T18:07:14.661Z,18.00
2018-07-11T18:09:54.379Z,18.00
2018-07-11T18:12:24.885Z,18.00
2018-07-11T18:15:17.808Z,18.10
2018-07-11T18:18:22.978Z,18.10
2018-07-11T18:20:56.605Z,18.10
2018-07-11T18:23:37.985Z,18.00
2018-07-11T18:26:46.941Z,17.90
2018-07-11T18:29:26.709Z,17.80
2018-07-11T18:33:06.698Z,17.80
2018-07-11T18:36:53.900Z,17.80
2018-07-11T18:40:07.641Z,17.80
2018-07-11T18:42:41.998Z,17.80
2018-07-11T18:46:48.593Z,18.00
2018-07-11T18:49:26.057Z,17.90
2018-07-11T18:52:39.737Z,17.80
2018-07-11T18:55:15.566Z,17.70
2018-07-11T18:57:58.662Z,17.80
2018-07-11T19:00:38.450Z,17.80
2018-07-11T19:03:32.649Z,17.70
2018-07-11T19:06:15.962Z,17.70
2018-07-11T19:09:24.237Z,17.70
2018-07-11T19:11:55.941Z,17.60
2018-07-11T19:14:35.070Z,17.70
2018-07-11T19:17:28.713Z,17.80
2018-07-11T19:20:13.745Z,17.80
2018-07-11T19:22:49.397Z,17.80
2018-07-11T19:25:33.314Z,17.90
2018-07-11T19:28:22.521Z,17.90
2018-07-11T19:31:01.810Z,18.00
2018-07-11T19:33:41.664Z,17.80
2018-07-11T19:36:18.456Z,17.90
2018-07-11T19:39:01.892Z,17.90
2018-07-11T19:41:44.782Z,17.90
2018-07-11T19:46:28.780Z,17.90
2018-07-11T19:49:07.821Z,17.90
2018-07-11T19:51:46.560Z,17.90
2018-07-11T19:54:24.093Z,17.90
2018-07-11T19:56:52.728Z,18.00
2018-07-11T19:59:21.273Z,18.00
2018-07-11T20:01:49.656Z,17.90
2018-07-11T20:04:18.188Z,17.90
2018-07-11T20:06:46.590Z,17.80
2018-07-11T20:09:15.253Z,17.80
2018-07-11T20:11:43.658Z,17.90
2018-07-11T20:14:12.113Z,17.90
2018-07-11T20:16:40.524Z,17.80
2018-07-11T20:19:08.996Z,17.80
2018-07-11T20:21:37.346Z,17.80
2018-07-11T20:24:05.712Z,17.80
2018-07-11T20:26:34.097Z,17.90
2018-07-11T20:29:02.633Z,18.00
2018-07-11T20:31:30.984Z,18.00
2018-07-11T20:33:59.342Z,17.90
2018-07-11T20:36:27.813Z,17.80
2018-07-11T20:38:56.881Z,17.80
2018-07-11T20:41:25.289Z,17.90
2018-07-11T20:43:53.890Z,17.80
2018-07-11T20:46:22.346Z,17.90
2018-07-11T20:48:50.926Z,17.80
2018-07-11T20:51:19.469Z,17.80
2018-07-11T20:53:47.890Z,17.60
2018-07-11T20:56:16.241Z,17.50
2018-07-11T20:58:55.973Z,17.60
2018-07-11T21:01:35.608Z,17.50
2018-07-11T21:04:15.482Z,17.30
2018-07-11T21:06:55.241Z,17.30
2018-07-11T21:10:36.149Z,17.30
2018-07-11T21:13:23.460Z,17.40
2018-07-11T21:18:16.397Z,17.40
2018-07-11T21:20:44.769Z,17.50
2018-07-11T21:23:13.128Z,17.50
2018-07-11T21:25:41.484Z,17.50
2018-07-11T21:28:09.853Z,17.60
2018-07-11T21:30:38.197Z,17.50
2018-07-11T21:33:06.558Z,17.50
2018-07-11T21:35:35.100Z,17.60
2018-07-11T21:38:03.824Z,17.60
2018-07-11T21:40:32.238Z,17.60
2018-07-11T21:43:00.608Z,17.60
2018-07-11T21:45:29.026Z,17.70
2018-07-11T21:47:57.384Z,17.70
2018-07-11T21:50:25.757Z,17.60
2018-07-11T21:52:54.090Z,17.60
2018-07-11T21:55:22.465Z,17.60
2018-07-11T21:57:50.788Z,17.60
2018-07-11T22:00:30.537Z,17.60
2018-07-11T22:02:58.929Z,17.60
2018-07-11T22:05:28.433Z,17.60
2018-07-11T22:07:56.866Z,17.60
2018-07-11T22:10:25.420Z,17.60
2018-07-11T22:12:53.753Z,17.50
2018-07-11T22:15:22.121Z,17.60
2018-07-11T22:18:01.757Z,17.60
2018-07-11T22:20:29.392Z,17.60
2018-07-11T22:22:56.641Z,17.60
2018-07-11T22:25:23.909Z,17.60
2018-07-11T22:27:51.177Z,17.60
2018-07-11T22:30:18.445Z,17.50
2018-07-11T22:32:45.709Z,17.60
2018-07-11T22:35:13.037Z,17.50
2018-07-11T22:37:40.321Z,17.60
2018-07-11T22:40:07.661Z,17.50
2018-07-11T22:42:34.908Z,17.50
2018-07-11T22:45:02.209Z,17.50
2018-07-11T22:47:29.485Z,17.60
2018-07-11T22:49:58.872Z,17.50
2018-07-11T22:52:27.595Z,17.50
2018-07-11T22:54:55.172Z,17.40
2018-07-11T22:57:22.440Z,17.40
2018-07-11T22:59:50.446Z,17.40
2018-07-11T23:02:17.913Z,17.40
2018-07-11T23:04:45.190Z,17.40
2018-07-11T23:07:12.449Z,17.40
2018-07-11T23:09:39.729Z,17.40
2018-07-11T23:12:07.142Z,17.40
2018-07-11T23:14:34.728Z,17.30
2018-07-11T23:17:02.904Z,17.30
2018-07-11T23:19:30.406Z,17.30
2018-07-11T23:21:58.190Z,17.40
2018-07-11T23:24:25.677Z,17.30
2018-07-11T23:26:53.149Z,17.30
2018-07-11T23:29:20.640Z,17.30
2018-07-11T23:31:47.926Z,17.30
2018-07-11T23:34:15.197Z,17.30
2018-07-11T23:36:42.452Z,17.40
2018-07-11T23:39:10.768Z,17.30
2018-07-11T23:41:38.057Z,17.30
2018-07-11T23:44:05.437Z,17.30
2018-07-11T23:46:32.713Z,17.30
2018-07-11T23:48:59.964Z,17.40
2018-07-11T23:51:27.255Z,17.40
2018-07-11T23:53:54.509Z,17.30
2018-07-11T23:56:21.784Z,17.30
2018-07-11T23:58:49.041Z,17.30
